createdAt,value
2022-09-14T00:00:42.394Z,82.25
2022-09-14T00:01:44.780Z,82.41
2022-09-14T00:02:46.780Z,82.31
2022-09-14T00:03:52.601Z,82.32
2022-09-14T00:04:54.823Z,82.48
2022-09-14T00:05:56.267Z,81.90
2022-09-14T00:06:58.156Z,81.49
2022-09-14T00:08:00.027Z,81.82
2022-09-14T00:09:02.588Z,81.63
2022-09-14T00:10:04.382Z,81.84
2022-09-14T00:11:14.966Z,82.52
2022-09-14T00:12:16.825Z,82.60
2022-09-14T00:13:18.233Z,82.60
2022-09-14T00:14:20.885Z,82.69
2022-09-14T00:15:22.771Z,82.35
2022-09-14T00:16:28.389Z,81.66
2022-09-14T00:17:31.304Z,80.80
2022-09-14T00:18:33.964Z,80.62
2022-09-14T00:19:35.458Z,80.49
2022-09-14T00:20:38.463Z,80.95
2022-09-14T00:21:40.002Z,80.51
2022-09-14T00:22:42.243Z,79.59
2022-09-14T00:23:43.696Z,79.49
2022-09-14T00:24:47.183Z,79.80
2022-09-14T00:25:48.645Z,80.05
2022-09-14T00:26:50.823Z,80.37
2022-09-14T00:27:56.655Z,79.72
2022-09-14T00:28:59.807Z,79.75
2022-09-14T00:30:01.296Z,79.61
2022-09-14T00:31:04.288Z,79.76
2022-09-14T00:32:05.958Z,80.26
2022-09-14T00:33:08.072Z,80.88
2022-09-14T00:34:13.840Z,81.46
2022-09-14T00:35:15.412Z,81.73
2022-09-14T00:36:28.371Z,81.63
2022-09-14T00:37:30.233Z,81.72
2022-09-14T00:38:31.746Z,82.20
2022-09-14T00:39:33.273Z,82.83
2022-09-14T00:40:34.724Z,83.33
2022-09-14T00:41:39.147Z,83.39
2022-09-14T00:42:40.890Z,83.91
2022-09-14T00:43:57.673Z,84.11
2022-09-14T00:45:08.291Z,84.38
2022-09-14T00:46:09.797Z,83.83
2022-09-14T00:47:13.286Z,83.46
2022-09-14T00:48:15.195Z,83.39
2022-09-14T00:49:27.868Z,83.39
2022-09-14T00:50:29.441Z,83.69
2022-09-14T00:51:33.572Z,83.10
2022-09-14T00:52:38.906Z,82.02
2022-09-14T00:53:40.538Z,82.22
2022-09-14T00:54:47.263Z,82.35
2022-09-14T00:55:48.998Z,82.80
2022-09-14T00:56:51.557Z,82.46
2022-09-14T00:57:54.379Z,82.96
2022-09-14T00:58:57.741Z,83.28
2022-09-14T00:59:59.795Z,83.73
2022-09-14T01:01:02.440Z,83.67
2022-09-14T01:02:05.581Z,83.65
2022-09-14T01:03:07.156Z,83.71
2022-09-14T01:04:08.612Z,83.40
2022-09-14T01:05:11.701Z,82.81
2022-09-14T01:06:26.311Z,81.96
2022-09-14T01:08:05.016Z,80.97
2022-09-14T01:09:12.090Z,81.46
2022-09-14T01:10:25.716Z,82.98
2022-09-14T01:11:48.353Z,83.29
2022-09-14T01:13:32.916Z,83.17
2022-09-14T01:15:08.780Z,83.64
2022-09-14T01:16:27.056Z,83.88
2022-09-14T01:18:00.160Z,83.04
2022-09-14T01:19:07.378Z,82.46
2022-09-14T01:20:39.999Z,82.46
2022-09-14T01:21:43.411Z,81.94
2022-09-14T01:23:03.907Z,81.50
2022-09-14T01:24:30.975Z,81.25
2022-09-14T01:25:44.371Z,80.88
2022-09-14T01:27:01.073Z,80.68
2022-09-14T01:28:10.383Z,80.82
2022-09-14T01:29:26.852Z,81.15
2022-09-14T01:30:31.945Z,81.63
2022-09-14T01:31:53.067Z,82.96
2022-09-14T01:33:20.163Z,83.49
2022-09-14T01:34:30.496Z,83.86
2022-09-14T01:35:40.718Z,84.41
2022-09-14T01:36:51.734Z,84.66
2022-09-14T01:38:02.650Z,84.94
2022-09-14T01:39:04.883Z,84.92
2022-09-14T01:40:35.676Z,85.09
2022-09-14T01:41:39.734Z,85.56
2022-09-14T01:42:46.091Z,85.37
2022-09-14T01:43:55.596Z,85.36
2022-09-14T01:45:00.144Z,85.29
2022-09-14T01:46:09.655Z,85.18
2022-09-14T01:47:31.319Z,85.34
2022-09-14T01:48:39.673Z,85.66
2022-09-14T01:49:46.856Z,85.54
2022-09-14T01:50:52.244Z,85.43
2022-09-14T01:51:59.839Z,85.53
2022-09-14T01:53:11.936Z,85.84
2022-09-14T01:54:16.843Z,85.56
2022-09-14T01:55:31.685Z,85.82
2022-09-14T01:56:38.953Z,85.75
2022-09-14T01:57:46.305Z,85.85
2022-09-14T01:58:58.321Z,86.08
2022-09-14T02:00:06.470Z,86.49
2022-09-14T02:01:11.610Z,86.81
2022-09-14T02:02:26.237Z,87.04
2022-09-14T02:03:34.130Z,86.71
2022-09-14T02:04:49.727Z,86.65
2022-09-14T02:06:03.531Z,86.30
2022-09-14T02:07:05.093Z,86.59
2022-09-14T02:08:06.797Z,86.89
2022-09-14T02:09:12.641Z,87.04
2022-09-14T02:10:16.529Z,87.36
2022-09-14T02:11:17.976Z,87.23
2022-09-14T02:12:19.591Z,86.88
2022-09-14T02:13:21.106Z,86.96
2022-09-14T02:14:23.389Z,87.14
2022-09-14T02:15:26.312Z,86.99
2022-09-14T02:16:28.071Z,86.58
2022-09-14T02:17:29.667Z,87.13
2022-09-14T02:18:31.736Z,87.15
2022-09-14T02:19:39.355Z,87.30
2022-09-14T02:20:46.925Z,87.32
2022-09-14T02:21:48.437Z,87.65
2022-09-14T02:22:51.770Z,87.71
2022-09-14T02:23:54.112Z,87.88
2022-09-14T02:24:56.200Z,88.46
2022-09-14T02:25:59.046Z,88.71
2022-09-14T02:27:00.963Z,88.82
2022-09-14T02:28:04.146Z,88.41
2022-09-14T02:29:06.319Z,87.99
2022-09-14T02:30:08.619Z,87.29
2022-09-14T02:31:17.205Z,86.52
2022-09-14T02:32:23.701Z,85.79
2022-09-14T02:33:39.791Z,85.41
2022-09-14T02:35:01.784Z,85.81
2022-09-14T02:36:16.084Z,85.82
2022-09-14T02:37:43.375Z,86.16
2022-09-14T02:39:11.996Z,86.09
2022-09-14T02:40:24.368Z,86.33
2022-09-14T02:41:49.028Z,86.26
2022-09-14T02:43:04.394Z,85.98
2022-09-14T02:44:17.894Z,85.37
2022-09-14T02:45:32.927Z,84.64
2022-09-14T02:47:02.448Z,83.92
2022-09-14T02:48:03.869Z,83.46
2022-09-14T02:49:12.548Z,83.09
2022-09-14T02:50:23.467Z,83.29
2022-09-14T02:51:35.135Z,83.69
2022-09-14T02:52:53.678Z,84.24
2022-09-14T02:54:12.260Z,84.20
2022-09-14T02:55:19.070Z,83.42
2022-09-14T02:56:21.251Z,83.74
2022-09-14T02:57:22.707Z,83.57
2022-09-14T02:58:24.128Z,83.43
2022-09-14T02:59:25.569Z,83.35
2022-09-14T03:00:28.997Z,82.95
2022-09-14T03:01:30.995Z,83.03
2022-09-14T03:02:32.607Z,82.98
2022-09-14T03:03:35.745Z,82.81
2022-09-14T03:04:37.446Z,83.64
2022-09-14T03:05:39.555Z,83.65
2022-09-14T03:06:40.997Z,84.38
2022-09-14T03:07:42.474Z,85.17
2022-09-14T03:08:44.445Z,85.50
2022-09-14T03:09:46.160Z,85.58
2022-09-14T03:10:47.887Z,85.61
2022-09-14T03:11:49.393Z,86.36
2022-09-14T03:12:50.917Z,86.70
2022-09-14T03:13:52.617Z,86.91
2022-09-14T03:14:54.453Z,86.75
2022-09-14T03:15:56.071Z,86.83
2022-09-14T03:16:57.524Z,86.64
2022-09-14T03:17:59.298Z,86.75
2022-09-14T03:19:00.784Z,86.67
2022-09-14T03:20:02.861Z,87.25
2022-09-14T03:21:13.329Z,87.20
2022-09-14T03:22:14.758Z,86.82
2022-09-14T03:23:16.202Z,86.78
2022-09-14T03:24:17.660Z,86.70
2022-09-14T03:25:19.897Z,86.74
2022-09-14T03:26:24.146Z,86.87
2022-09-14T03:27:25.756Z,86.73
2022-09-14T03:28:27.189Z,86.81
2022-09-14T03:29:28.625Z,86.90
2022-09-14T03:30:30.374Z,86.64
2022-09-14T03:31:33.414Z,86.63
2022-09-14T03:32:35.093Z,86.51
2022-09-14T03:33:37.197Z,86.89
2022-09-14T03:34:38.616Z,86.80
2022-09-14T03:35:40.036Z,86.94
2022-09-14T03:36:41.892Z,87.30
2022-09-14T03:37:45.002Z,87.54
2022-09-14T03:38:52.342Z,87.20
2022-09-14T03:39:53.813Z,87.36
2022-09-14T03:40:58.438Z,87.06
2022-09-14T03:42:00.199Z,86.75
2022-09-14T03:43:01.608Z,87.09
2022-09-14T03:44:03.183Z,86.31
2022-09-14T03:45:05.104Z,86.18
2022-09-14T03:46:13.422Z,86.10
2022-09-14T03:47:15.266Z,86.26
2022-09-14T03:48:16.806Z,86.43
2022-09-14T03:49:18.415Z,86.58
2022-09-14T03:50:20.071Z,86.97
2022-09-14T03:51:22.087Z,86.66
2022-09-14T03:52:23.861Z,86.07
2022-09-14T03:53:25.271Z,86.00
2022-09-14T03:54:27.867Z,85.74
2022-09-14T03:55:29.305Z,84.93
2022-09-14T03:56:31.082Z,85.89
2022-09-14T03:57:33.331Z,86.86
2022-09-14T03:58:35.141Z,87.05
2022-09-14T03:59:39.455Z,87.68
2022-09-14T04:00:44.507Z,88.03
2022-09-14T04:01:46.368Z,87.98
2022-09-14T04:02:48.251Z,87.33
2022-09-14T04:03:50.306Z,86.35
2022-09-14T04:04:52.206Z,86.30
2022-09-14T04:05:56.847Z,86.17
2022-09-14T04:06:58.260Z,86.00
2022-09-14T04:08:00.041Z,85.42
2022-09-14T04:09:01.735Z,85.47
2022-09-14T04:10:05.653Z,85.06
2022-09-14T04:11:14.595Z,84.81
2022-09-14T04:12:15.950Z,84.44
2022-09-14T04:13:17.588Z,84.50
2022-09-14T04:14:19.027Z,84.22
2022-09-14T04:15:20.448Z,84.40
2022-09-14T04:16:22.230Z,85.77
2022-09-14T04:17:25.081Z,86.60
2022-09-14T04:18:27.555Z,87.50
2022-09-14T04:19:29.060Z,87.96
2022-09-14T04:20:30.505Z,87.92
2022-09-14T04:21:32.967Z,88.14
2022-09-14T04:22:34.616Z,88.06
2022-09-14T04:23:56.564Z,88.38
2022-09-14T04:24:58.289Z,88.36
2022-09-14T04:26:00.120Z,88.48
2022-09-14T04:27:01.883Z,88.73
2022-09-14T04:28:20.231Z,89.03
2022-09-14T04:29:22.644Z,88.22
2022-09-14T04:30:24.112Z,87.35
2022-09-14T04:31:26.148Z,87.40
2022-09-14T04:32:30.852Z,88.00
2022-09-14T04:33:37.355Z,88.46
2022-09-14T04:34:38.794Z,88.61
2022-09-14T04:35:40.216Z,88.56
2022-09-14T04:36:41.822Z,87.79
2022-09-14T04:37:43.249Z,86.94
2022-09-14T04:38:45.599Z,86.66
2022-09-14T04:39:47.061Z,87.54
2022-09-14T04:40:48.779Z,87.92
2022-09-14T04:41:50.256Z,87.10
2022-09-14T04:42:51.678Z,86.99
2022-09-14T04:43:55.424Z,87.67
2022-09-14T04:44:56.900Z,88.00
2022-09-14T04:46:03.728Z,88.44
2022-09-14T04:47:05.231Z,87.51
2022-09-14T04:48:06.630Z,86.72
2022-09-14T04:49:09.614Z,85.87
2022-09-14T04:50:11.669Z,85.58
2022-09-14T04:51:16.563Z,85.67
2022-09-14T04:52:18.142Z,85.73
2022-09-14T04:53:19.527Z,85.62
2022-09-14T04:54:26.445Z,85.50
2022-09-14T04:55:28.091Z,86.68
2022-09-14T04:56:32.486Z,87.57
2022-09-14T04:57:33.919Z,88.12
2022-09-14T04:58:41.861Z,88.33
2022-09-14T04:59:43.603Z,88.57
2022-09-14T05:00:46.384Z,88.59
2022-09-14T05:01:49.454Z,89.25
2022-09-14T05:02:51.035Z,89.38
2022-09-14T05:03:54.163Z,88.99
2022-09-14T05:04:55.577Z,88.47
2022-09-14T05:06:04.831Z,88.30
2022-09-14T05:07:06.360Z,88.17
2022-09-14T05:08:07.776Z,88.18
2022-09-14T05:09:15.475Z,87.73
2022-09-14T05:10:17.084Z,87.46
2022-09-14T05:11:20.888Z,87.18
2022-09-14T05:12:22.305Z,87.24
2022-09-14T05:13:24.247Z,87.10
2022-09-14T05:14:26.047Z,87.13
2022-09-14T05:15:27.488Z,87.61
2022-09-14T05:16:35.032Z,87.67
2022-09-14T05:17:36.559Z,87.67
2022-09-14T05:18:37.998Z,88.06
2022-09-14T05:19:39.783Z,88.50
2022-09-14T05:20:41.233Z,87.84
2022-09-14T05:21:42.892Z,87.10
2022-09-14T05:22:44.395Z,86.77
2022-09-14T05:23:46.510Z,86.77
2022-09-14T05:24:48.372Z,86.93
2022-09-14T05:25:53.854Z,86.16
2022-09-14T05:27:00.101Z,86.16
2022-09-14T05:28:02.858Z,86.36
2022-09-14T05:29:04.576Z,85.58
2022-09-14T05:30:06.944Z,86.15
2022-09-14T05:31:13.024Z,85.73
2022-09-14T05:32:14.607Z,85.94
2022-09-14T05:33:16.047Z,86.76
2022-09-14T05:34:17.827Z,87.49
2022-09-14T05:35:19.312Z,88.12
2022-09-14T05:36:21.144Z,88.08
2022-09-14T05:37:22.595Z,87.66
2022-09-14T05:38:24.035Z,87.73
2022-09-14T05:39:25.850Z,87.80
2022-09-14T05:40:27.340Z,87.28
2022-09-14T05:41:28.873Z,86.72
2022-09-14T05:42:30.301Z,86.02
2022-09-14T05:43:32.223Z,85.78
2022-09-14T05:44:34.482Z,85.33
2022-09-14T05:45:36.235Z,85.44
2022-09-14T05:46:37.709Z,85.53
2022-09-14T05:47:39.411Z,85.65
2022-09-14T05:48:41.102Z,85.84
2022-09-14T05:49:42.941Z,86.23
2022-09-14T05:50:44.549Z,86.41
2022-09-14T05:51:46.416Z,86.50
2022-09-14T05:52:49.069Z,86.75
2022-09-14T05:53:53.380Z,86.78
2022-09-14T05:54:54.795Z,86.82
2022-09-14T05:56:04.492Z,87.49
2022-09-14T05:57:05.911Z,87.34
2022-09-14T05:58:07.366Z,88.13
2022-09-14T05:59:11.307Z,87.73
2022-09-14T06:00:13.465Z,87.37
2022-09-14T06:01:24.556Z,86.98
2022-09-14T06:02:26.335Z,87.09
2022-09-14T06:03:27.854Z,86.87
2022-09-14T06:04:29.731Z,86.52
2022-09-14T06:05:31.509Z,86.44
2022-09-14T06:06:33.775Z,86.22
2022-09-14T06:07:35.184Z,86.35
2022-09-14T06:08:37.761Z,86.52
2022-09-14T06:09:39.547Z,86.50
2022-09-14T06:10:41.050Z,86.41
2022-09-14T06:11:42.634Z,86.97
2022-09-14T06:12:44.082Z,86.92
2022-09-14T06:13:49.982Z,87.05
2022-09-14T06:14:51.783Z,88.04
2022-09-14T06:15:53.316Z,88.75
2022-09-14T06:16:54.781Z,88.72
2022-09-14T06:17:56.526Z,88.21
2022-09-14T06:18:59.158Z,88.06
2022-09-14T06:20:04.434Z,88.43
2022-09-14T06:21:07.676Z,87.76
2022-09-14T06:22:09.164Z,88.15
2022-09-14T06:23:10.570Z,87.64
2022-09-14T06:24:15.410Z,87.40
2022-09-14T06:25:16.858Z,86.95
2022-09-14T06:26:18.330Z,86.83
2022-09-14T06:27:19.857Z,86.86
2022-09-14T06:28:22.250Z,86.71
2022-09-14T06:29:24.014Z,86.97
2022-09-14T06:30:26.560Z,86.86
2022-09-14T06:31:28.046Z,86.62
2022-09-14T06:32:32.448Z,86.96
2022-09-14T06:33:35.191Z,87.60
2022-09-14T06:34:36.968Z,87.71
2022-09-14T06:35:38.396Z,87.66
2022-09-14T06:36:39.811Z,87.11
2022-09-14T06:37:41.225Z,86.66
2022-09-14T06:38:42.909Z,87.11
2022-09-14T06:39:45.261Z,87.64
2022-09-14T06:41:01.482Z,88.16
2022-09-14T06:42:03.158Z,87.66
2022-09-14T06:43:04.578Z,86.77
2022-09-14T06:44:06.499Z,86.29
2022-09-14T06:45:08.642Z,86.21
2022-09-14T06:46:19.519Z,86.21
2022-09-14T06:47:21.566Z,85.99
2022-09-14T06:48:23.256Z,85.72
2022-09-14T06:49:24.999Z,86.77
2022-09-14T06:50:27.232Z,87.70
2022-09-14T06:51:31.351Z,88.05
2022-09-14T06:52:33.928Z,87.52
2022-09-14T06:53:35.477Z,87.46
2022-09-14T06:54:37.236Z,87.97
2022-09-14T06:55:38.684Z,88.41
2022-09-14T06:56:41.660Z,88.89
2022-09-14T06:57:43.280Z,89.12
2022-09-14T06:58:45.100Z,89.86
2022-09-14T06:59:46.940Z,90.15
2022-09-14T07:00:48.392Z,90.40
2022-09-14T07:01:49.880Z,90.88
2022-09-14T07:02:55.421Z,91.35
2022-09-14T07:03:58.351Z,91.17
2022-09-14T07:05:00.430Z,91.24
2022-09-14T07:06:06.499Z,90.27
2022-09-14T07:07:08.084Z,90.62
2022-09-14T07:08:12.319Z,89.98
2022-09-14T07:09:16.311Z,88.99
2022-09-14T07:10:17.818Z,89.65
2022-09-14T07:11:22.103Z,90.76
2022-09-14T07:12:23.539Z,91.35
2022-09-14T07:13:25.001Z,91.61
2022-09-14T07:14:30.370Z,92.02
2022-09-14T07:15:33.578Z,92.51
2022-09-14T07:16:36.895Z,92.09
2022-09-14T07:17:38.315Z,91.79
2022-09-14T07:18:40.340Z,91.85
2022-09-14T07:19:43.232Z,91.78
2022-09-14T07:20:44.791Z,91.33
2022-09-14T07:21:46.801Z,91.13
2022-09-14T07:22:48.263Z,90.08
2022-09-14T07:23:50.782Z,89.28
2022-09-14T07:24:52.596Z,90.17
2022-09-14T07:26:18.204Z,90.59
2022-09-14T07:27:19.645Z,91.10
2022-09-14T07:28:21.406Z,91.37
2022-09-14T07:29:23.274Z,91.38
2022-09-14T07:30:26.832Z,91.18
2022-09-14T07:31:31.759Z,91.08
2022-09-14T07:32:33.294Z,90.85
2022-09-14T07:33:34.785Z,89.66
2022-09-14T07:34:36.585Z,89.86
2022-09-14T07:35:38.099Z,90.45
2022-09-14T07:36:40.972Z,89.54
2022-09-14T07:37:42.353Z,88.79
2022-09-14T07:38:57.801Z,89.36
2022-09-14T07:39:59.753Z,89.11
2022-09-14T07:41:01.947Z,89.84
2022-09-14T07:42:03.670Z,90.37
2022-09-14T07:43:06.512Z,90.68
2022-09-14T07:44:08.765Z,90.11
2022-09-14T07:45:10.332Z,90.92
2022-09-14T07:46:11.863Z,91.26
2022-09-14T07:47:13.362Z,92.02
2022-09-14T07:48:14.882Z,91.60
2022-09-14T07:49:17.834Z,91.01
2022-09-14T07:50:19.263Z,91.49
2022-09-14T07:51:20.691Z,92.01
2022-09-14T07:52:22.154Z,92.45
2022-09-14T07:53:23.598Z,92.23
2022-09-14T07:54:25.526Z,91.90
2022-09-14T07:55:26.988Z,92.32
2022-09-14T07:56:29.431Z,92.38
2022-09-14T07:57:54.603Z,92.27
2022-09-14T07:59:11.631Z,91.67
2022-09-14T08:00:21.796Z,92.13
2022-09-14T08:01:23.846Z,92.03
2022-09-14T08:02:25.564Z,92.05
2022-09-14T08:03:29.007Z,91.92
2022-09-14T08:04:30.717Z,91.90
2022-09-14T08:05:32.106Z,92.26
2022-09-14T08:06:34.648Z,92.76
2022-09-14T08:07:36.082Z,92.62
2022-09-14T08:08:39.641Z,92.13
2022-09-14T08:09:41.395Z,91.83
2022-09-14T08:10:42.867Z,91.06
2022-09-14T08:11:44.310Z,91.37
2022-09-14T08:12:50.742Z,91.80
2022-09-14T08:13:58.392Z,92.00
2022-09-14T08:15:00.248Z,92.75
2022-09-14T08:16:02.211Z,93.22
2022-09-14T08:17:03.877Z,93.62
2022-09-14T08:18:05.722Z,93.34
2022-09-14T08:19:12.581Z,93.35
2022-09-14T08:20:15.872Z,93.27
2022-09-14T08:21:17.687Z,93.58
2022-09-14T08:22:19.163Z,93.71
2022-09-14T08:23:20.557Z,93.32
2022-09-14T08:24:22.520Z,93.20
2022-09-14T08:25:23.946Z,92.97
2022-09-14T08:26:27.166Z,92.86
2022-09-14T08:27:28.669Z,92.68
2022-09-14T08:28:30.201Z,91.77
2022-09-14T08:29:32.030Z,91.81
2022-09-14T08:30:33.628Z,91.92
2022-09-14T08:31:39.025Z,91.37
2022-09-14T08:32:40.571Z,91.48
2022-09-14T08:33:45.151Z,91.54
2022-09-14T08:34:48.092Z,91.52
2022-09-14T08:35:58.146Z,90.98
2022-09-14T08:37:00.049Z,91.07
2022-09-14T08:38:01.512Z,91.32
2022-09-14T08:39:04.930Z,91.44
2022-09-14T08:40:07.938Z,91.63
2022-09-14T08:41:19.582Z,91.85
2022-09-14T08:42:24.999Z,91.85
2022-09-14T08:43:27.694Z,91.72
2022-09-14T08:44:43.104Z,91.75
2022-09-14T08:45:45.748Z,90.64
2022-09-14T08:47:04.591Z,89.42
2022-09-14T08:48:15.839Z,89.76
2022-09-14T08:49:30.450Z,90.46
2022-09-14T08:50:35.733Z,91.09
2022-09-14T08:51:39.906Z,91.45
2022-09-14T08:52:43.385Z,92.10
2022-09-14T08:53:45.512Z,92.07
2022-09-14T08:54:51.315Z,92.25
2022-09-14T08:56:01.242Z,92.08
2022-09-14T08:57:43.926Z,92.12
2022-09-14T08:58:57.376Z,92.36
2022-09-14T09:00:12.937Z,92.43
2022-09-14T09:01:48.057Z,92.41
2022-09-14T09:03:23.250Z,92.74
2022-09-14T09:04:58.337Z,92.69
2022-09-14T09:06:15.609Z,92.59
2022-09-14T09:07:42.973Z,92.38
2022-09-14T09:08:57.306Z,92.40
2022-09-14T09:09:59.489Z,92.17
2022-09-14T09:11:01.846Z,92.16
2022-09-14T09:12:05.102Z,91.92
2022-09-14T09:13:10.641Z,91.90
2022-09-14T09:14:21.313Z,92.00
2022-09-14T09:15:28.812Z,92.17
2022-09-14T09:16:30.981Z,92.15
2022-09-14T09:17:40.599Z,91.34
2022-09-14T09:18:53.640Z,91.10
2022-09-14T09:19:59.947Z,91.48
2022-09-14T09:21:07.961Z,91.46
2022-09-14T09:22:16.037Z,91.66
2022-09-14T09:23:22.770Z,91.79
2022-09-14T09:24:27.237Z,91.79
2022-09-14T09:25:38.781Z,91.75
2022-09-14T09:26:40.326Z,91.89
2022-09-14T09:27:41.788Z,91.81
2022-09-14T09:28:51.835Z,92.19
2022-09-14T09:29:53.375Z,92.79
2022-09-14T09:30:58.277Z,93.23
2022-09-14T09:31:59.780Z,93.37
2022-09-14T09:33:01.438Z,93.78
2022-09-14T09:34:04.021Z,94.32
2022-09-14T09:35:06.487Z,94.30
2022-09-14T09:36:11.730Z,94.32
2022-09-14T09:37:20.233Z,94.04
2022-09-14T09:38:25.430Z,93.62
2022-09-14T09:39:29.214Z,93.68
2022-09-14T09:40:44.952Z,93.77
2022-09-14T09:42:00.944Z,93.98
2022-09-14T09:43:21.272Z,93.40
2022-09-14T09:44:30.312Z,92.99
2022-09-14T09:45:53.775Z,92.72
2022-09-14T09:47:00.920Z,92.59
2022-09-14T09:48:09.937Z,92.43
2022-09-14T09:49:20.486Z,92.19
2022-09-14T09:50:25.096Z,92.21
2022-09-14T09:51:29.146Z,91.71
2022-09-14T09:52:33.132Z,91.93
2022-09-14T09:53:38.682Z,92.01
2022-09-14T09:54:42.909Z,92.16
2022-09-14T09:55:49.317Z,92.14
2022-09-14T09:57:00.858Z,91.78
2022-09-14T09:58:32.275Z,92.01
2022-09-14T09:59:37.978Z,92.19
2022-09-14T10:00:39.568Z,92.29
2022-09-14T10:01:41.525Z,92.24
2022-09-14T10:02:43.252Z,92.20
2022-09-14T10:04:01.195Z,92.72
2022-09-14T10:05:18.120Z,92.83
2022-09-14T10:06:19.660Z,92.73
2022-09-14T10:07:23.107Z,92.86
2022-09-14T10:08:25.619Z,92.71
2022-09-14T10:09:28.631Z,92.78
2022-09-14T10:10:35.996Z,92.86
2022-09-14T10:11:38.668Z,92.95
2022-09-14T10:12:47.200Z,92.70
2022-09-14T10:13:48.690Z,92.70
2022-09-14T10:15:02.990Z,92.94
2022-09-14T10:16:14.187Z,92.89
2022-09-14T10:17:23.914Z,92.87
2022-09-14T10:18:27.915Z,92.32
2022-09-14T10:19:30.580Z,92.38
2022-09-14T10:20:32.641Z,92.37
2022-09-14T10:21:34.432Z,92.56
2022-09-14T10:22:40.365Z,92.46
2022-09-14T10:23:41.838Z,92.47
2022-09-14T10:24:56.585Z,91.51
2022-09-14T10:26:13.478Z,91.42
2022-09-14T10:27:46.021Z,92.05
2022-09-14T10:28:49.284Z,92.11
2022-09-14T10:29:55.967Z,92.48
2022-09-14T10:31:15.964Z,92.98
2022-09-14T10:32:26.440Z,93.69
2022-09-14T10:33:29.024Z,93.64
2022-09-14T10:34:30.664Z,93.50
2022-09-14T10:35:59.280Z,92.92
2022-09-14T10:37:20.582Z,92.66
2022-09-14T10:38:43.734Z,92.06
2022-09-14T10:40:13.887Z,91.73
2022-09-14T10:41:26.016Z,91.04
2022-09-14T10:42:43.399Z,90.96
2022-09-14T10:43:48.065Z,90.59
2022-09-14T10:44:58.429Z,90.66
2022-09-14T10:46:04.533Z,90.93
2022-09-14T10:47:14.695Z,91.00
2022-09-14T10:48:46.331Z,90.83
2022-09-14T10:49:56.521Z,91.12
2022-09-14T10:51:23.417Z,91.17
2022-09-14T10:52:50.685Z,91.45
2022-09-14T10:54:16.616Z,91.16
2022-09-14T10:55:32.098Z,90.53
2022-09-14T10:57:03.564Z,90.56
2022-09-14T10:58:22.514Z,90.75
2022-09-14T10:59:28.719Z,90.91
2022-09-14T11:00:36.155Z,91.75
2022-09-14T11:02:14.631Z,91.67
2022-09-14T11:03:35.362Z,90.67
2022-09-14T11:04:59.800Z,90.35
2022-09-14T11:06:35.041Z,89.76
2022-09-14T11:08:03.296Z,89.93
2022-09-14T11:09:25.607Z,89.97
2022-09-14T11:10:48.821Z,89.98
2022-09-14T11:12:15.342Z,90.06
2022-09-14T11:13:34.020Z,90.66
2022-09-14T11:14:53.741Z,90.13
2022-09-14T11:16:03.347Z,90.14
2022-09-14T11:17:19.821Z,90.42
2022-09-14T11:18:33.486Z,90.24
2022-09-14T11:19:50.238Z,90.61
2022-09-14T11:21:19.633Z,90.77
2022-09-14T11:22:39.404Z,90.43
2022-09-14T11:23:53.681Z,89.73
2022-09-14T11:25:00.255Z,89.53
2022-09-14T11:26:14.702Z,89.13
2022-09-14T11:27:42.680Z,88.70
2022-09-14T11:28:51.484Z,88.30
2022-09-14T11:30:00.037Z,88.90
2022-09-14T11:31:28.275Z,89.38
2022-09-14T11:32:37.130Z,89.03
2022-09-14T11:34:17.028Z,89.06
2022-09-14T11:35:24.041Z,88.61
2022-09-14T11:36:34.386Z,88.40
2022-09-14T11:37:40.633Z,88.24
2022-09-14T11:38:48.717Z,87.81
2022-09-14T11:40:03.219Z,87.74
2022-09-14T11:41:22.830Z,87.66
2022-09-14T11:42:45.814Z,87.37
2022-09-14T11:43:53.548Z,86.85
2022-09-14T11:45:03.766Z,87.03
2022-09-14T11:46:12.045Z,87.20
2022-09-14T11:47:18.069Z,86.29
2022-09-14T11:48:42.838Z,86.00
2022-09-14T11:50:27.094Z,86.46
2022-09-14T11:51:57.583Z,86.95
2022-09-14T11:53:10.987Z,87.65
2022-09-14T11:54:20.820Z,87.81
2022-09-14T11:55:22.541Z,87.42
2022-09-14T11:56:32.011Z,86.63
2022-09-14T11:57:33.946Z,86.12
2022-09-14T11:58:35.585Z,86.37
2022-09-14T11:59:50.292Z,86.13
2022-09-14T12:00:52.234Z,86.26
2022-09-14T12:01:53.839Z,85.91
2022-09-14T12:03:21.196Z,86.06
2022-09-14T12:04:22.880Z,86.31
2022-09-14T12:05:28.888Z,86.19
2022-09-14T12:06:30.582Z,85.98
2022-09-14T12:07:45.490Z,86.13
2022-09-14T12:08:47.569Z,85.99
2022-09-14T12:09:51.145Z,86.65
2022-09-14T12:11:01.174Z,86.37
2022-09-14T12:12:03.353Z,86.52
2022-09-14T12:13:05.786Z,86.53
2022-09-14T12:14:21.438Z,86.53
2022-09-14T12:15:29.010Z,86.43
2022-09-14T12:16:34.496Z,86.13
2022-09-14T12:17:40.010Z,85.87
2022-09-14T12:18:45.348Z,86.27
2022-09-14T12:19:49.179Z,85.43
2022-09-14T12:21:02.802Z,85.49
2022-09-14T12:22:33.313Z,86.08
2022-09-14T12:23:37.635Z,86.49
2022-09-14T12:24:39.448Z,85.12
2022-09-14T12:25:56.214Z,85.45
2022-09-14T12:26:57.775Z,85.53
2022-09-14T12:27:59.337Z,84.89
2022-09-14T12:29:20.061Z,85.38
2022-09-14T12:30:40.529Z,85.80
2022-09-14T12:31:47.731Z,85.79
2022-09-14T12:32:49.224Z,86.10
2022-09-14T12:34:05.910Z,85.96
2022-09-14T12:35:38.056Z,85.60
2022-09-14T12:36:39.832Z,85.64
2022-09-14T12:37:41.374Z,86.41
2022-09-14T12:38:55.204Z,86.15
2022-09-14T12:40:21.644Z,84.84
2022-09-14T12:41:23.438Z,84.78
2022-09-14T12:42:32.228Z,85.09
2022-09-14T12:43:33.708Z,85.17
2022-09-14T12:44:39.590Z,85.26
2022-09-14T12:45:50.638Z,85.06
2022-09-14T12:46:53.374Z,84.94
2022-09-14T12:47:54.872Z,85.24
2022-09-14T12:49:02.950Z,85.01
2022-09-14T12:50:34.627Z,84.51
2022-09-14T12:51:47.264Z,84.17
2022-09-14T12:53:23.536Z,84.22
2022-09-14T12:54:36.787Z,83.65
2022-09-14T12:55:53.070Z,83.43
2022-09-14T12:57:42.853Z,82.17
2022-09-14T12:58:59.289Z,82.59
2022-09-14T13:00:16.860Z,82.87
2022-09-14T13:01:29.010Z,82.58
2022-09-14T13:02:47.629Z,81.28
2022-09-14T13:03:52.312Z,81.57
2022-09-14T13:04:56.352Z,79.61
2022-09-14T13:05:58.505Z,79.74
2022-09-14T13:07:02.938Z,80.03
2022-09-14T13:08:11.796Z,80.36
2022-09-14T13:09:21.085Z,79.71
2022-09-14T13:10:33.247Z,80.13
2022-09-14T13:11:40.239Z,80.10
2022-09-14T13:12:45.193Z,80.36
2022-09-14T13:13:48.808Z,80.07
2022-09-14T13:14:56.427Z,81.09
2022-09-14T13:16:00.969Z,80.65
2022-09-14T13:17:04.992Z,81.59
2022-09-14T13:18:28.502Z,81.11
2022-09-14T13:19:32.854Z,81.03
2022-09-14T13:20:35.443Z,81.58
2022-09-14T13:21:46.378Z,81.95
2022-09-14T13:22:48.143Z,81.96
2022-09-14T13:23:50.027Z,82.47
2022-09-14T13:24:52.529Z,81.87
2022-09-14T13:25:54.998Z,82.48
2022-09-14T13:26:59.705Z,82.11
2022-09-14T13:28:13.771Z,82.46
2022-09-14T13:29:16.049Z,82.54
2022-09-14T13:30:25.579Z,81.87
2022-09-14T13:31:29.933Z,82.82
2022-09-14T13:32:34.510Z,82.32
2022-09-14T13:33:37.195Z,82.58
2022-09-14T13:34:39.141Z,81.90
2022-09-14T13:35:56.421Z,82.79
2022-09-14T13:36:58.408Z,82.67
2022-09-14T13:38:07.750Z,82.07
2022-09-14T13:39:31.850Z,82.21
2022-09-14T13:40:33.815Z,82.17
2022-09-14T13:41:43.583Z,81.87
2022-09-14T13:42:45.469Z,82.55
2022-09-14T13:43:52.614Z,83.08
2022-09-14T13:44:54.329Z,82.95
2022-09-14T13:45:57.015Z,82.58
2022-09-14T13:47:01.923Z,80.92
2022-09-14T13:48:05.417Z,80.82
2022-09-14T13:49:07.493Z,80.54
2022-09-14T13:50:09.256Z,81.29
2022-09-14T13:51:13.332Z,81.09
2022-09-14T13:52:31.042Z,81.31
2022-09-14T13:53:52.459Z,82.54
2022-09-14T13:55:16.630Z,83.00
2022-09-14T13:56:21.424Z,82.49
2022-09-14T13:57:25.083Z,82.81
2022-09-14T13:58:32.586Z,82.50
2022-09-14T13:59:37.006Z,82.74
2022-09-14T14:00:52.531Z,82.61
2022-09-14T14:02:00.963Z,81.85
2022-09-14T14:03:05.028Z,82.16
2022-09-14T14:04:39.368Z,82.61
2022-09-14T14:05:43.590Z,83.02
2022-09-14T14:06:46.099Z,83.66
2022-09-14T14:07:47.734Z,83.43
2022-09-14T14:08:56.702Z,83.40
2022-09-14T14:09:59.796Z,83.10
2022-09-14T14:11:04.145Z,82.76
2022-09-14T14:12:05.733Z,82.73
2022-09-14T14:13:07.225Z,83.12
2022-09-14T14:14:13.378Z,83.40
2022-09-14T14:15:14.780Z,83.68
2022-09-14T14:16:22.352Z,83.84
2022-09-14T14:17:25.202Z,84.05
2022-09-14T14:18:35.997Z,84.25
2022-09-14T14:19:37.582Z,84.67
2022-09-14T14:20:39.330Z,85.55
2022-09-14T14:21:40.741Z,85.67
2022-09-14T14:23:14.706Z,85.51